sensor_id;sensor_type;location;lat;lon;timestamp;P1;durP1;ratioP1;P2;durP2;ratioP2
7025;SDS011;3554;42.132;24.786;2023-04-15T00:01:58;3.77;;;3.47;;
7025;SDS011;3554;42.132;24.786;2023-04-15T00:04:26;4.53;;;3.57;;
7025;SDS011;3554;42.132;24.786;2023-04-15T00:06:55;4.27;;;3.80;;
7025;SDS011;3554;42.132;24.786;2023-04-15T00:09:22;4.00;;;3.70;;
7025;SDS011;3554;42.132;24.786;2023-04-15T00:11:49;4.23;;;3.93;;
7025;SDS011;3554;42.132;24.786;2023-04-15T00:14:16;4.10;;;3.70;;
7025;SDS011;3554;42.132;24.786;2023-04-15T00:16:43;4.33;;;3.93;;
7025;SDS011;3554;42.132;24.786;2023-04-15T00:19:10;4.23;;;3.83;;
7025;SDS011;3554;42.132;24.786;2023-04-15T00:21:38;4.73;;;3.90;;
7025;SDS011;3554;42.132;24.786;2023-04-15T00:24:06;4.17;;;3.97;;
7025;SDS011;3554;42.132;24.786;2023-04-15T00:26:32;4.90;;;4.50;;
7025;SDS011;3554;42.132;24.786;2023-04-15T00:28:59;6.07;;;3.97;;
7025;SDS011;3554;42.132;24.786;2023-04-15T00:31:26;4.17;;;3.90;;
7025;SDS011;3554;42.132;24.786;2023-04-15T00:33:53;4.80;;;4.27;;
7025;SDS011;3554;42.132;24.786;2023-04-15T00:36:20;4.47;;;4.13;;
7025;SDS011;3554;42.132;24.786;2023-04-15T00:38:48;4.73;;;4.47;;
7025;SDS011;3554;42.132;24.786;2023-04-15T00:41:15;5.43;;;4.87;;
7025;SDS011;3554;42.132;24.786;2023-04-15T00:43:43;5.00;;;4.60;;
7025;SDS011;3554;42.132;24.786;2023-04-15T00:46:10;4.33;;;4.13;;
7025;SDS011;3554;42.132;24.786;2023-04-15T00:48:41;4.73;;;4.43;;
7025;SDS011;3554;42.132;24.786;2023-04-15T00:51:08;5.03;;;4.23;;
7025;SDS011;3554;42.132;24.786;2023-04-15T00:53:34;4.30;;;4.07;;
7025;SDS011;3554;42.132;24.786;2023-04-15T00:56:03;4.87;;;4.40;;
7025;SDS011;3554;42.132;24.786;2023-04-15T00:58:30;5.10;;;4.70;;
7025;SDS011;3554;42.132;24.786;2023-04-15T01:00:57;5.13;;;4.63;;
7025;SDS011;3554;42.132;24.786;2023-04-15T01:03:25;4.93;;;4.50;;
7025;SDS011;3554;42.132;24.786;2023-04-15T01:05:51;5.10;;;4.43;;
7025;SDS011;3554;42.132;24.786;2023-04-15T01:08:22;5.20;;;4.80;;
7025;SDS011;3554;42.132;24.786;2023-04-15T01:10:52;5.37;;;4.97;;
7025;SDS011;3554;42.132;24.786;2023-04-15T01:13:20;4.80;;;4.50;;
7025;SDS011;3554;42.132;24.786;2023-04-15T01:15:49;5.93;;;5.43;;
7025;SDS011;3554;42.132;24.786;2023-04-15T01:18:16;6.13;;;4.90;;
7025;SDS011;3554;42.132;24.786;2023-04-15T01:20:43;5.03;;;4.63;;
7025;SDS011;3554;42.132;24.786;2023-04-15T01:23:10;4.60;;;4.40;;
7025;SDS011;3554;42.132;24.786;2023-04-15T01:25:38;4.67;;;4.37;;
7025;SDS011;3554;42.132;24.786;2023-04-15T01:28:07;4.63;;;4.33;;
7025;SDS011;3554;42.132;24.786;2023-04-15T01:30:35;4.40;;;4.10;;
7025;SDS011;3554;42.132;24.786;2023-04-15T01:33:02;4.40;;;4.20;;
7025;SDS011;3554;42.132;24.786;2023-04-15T01:35:28;4.90;;;4.50;;
7025;SDS011;3554;42.132;24.786;2023-04-15T01:37:56;4.33;;;4.07;;
7025;SDS011;3554;42.132;24.786;2023-04-15T01:40:28;4.57;;;4.27;;
7025;SDS011;3554;42.132;24.786;2023-04-15T01:42:57;4.60;;;4.30;;
7025;SDS011;3554;42.132;24.786;2023-04-15T01:45:23;4.63;;;4.27;;
7025;SDS011;3554;42.132;24.786;2023-04-15T01:47:50;4.03;;;3.70;;
7025;SDS011;3554;42.132;24.786;2023-04-15T01:50:17;3.90;;;3.60;;
7025;SDS011;3554;42.132;24.786;2023-04-15T01:52:44;3.90;;;3.67;;
7025;SDS011;3554;42.132;24.786;2023-04-15T01:55:11;3.67;;;3.47;;
7025;SDS011;3554;42.132;24.786;2023-04-15T01:57:38;4.00;;;3.53;;
7025;SDS011;3554;42.132;24.786;2023-04-15T02:00:07;4.60;;;4.20;;
7025;SDS011;3554;42.132;24.786;2023-04-15T02:02:35;4.73;;;4.33;;
7025;SDS011;3554;42.132;24.786;2023-04-15T02:05:03;3.47;;;3.27;;
7025;SDS011;3554;42.132;24.786;2023-04-15T02:07:30;4.17;;;3.97;;
7025;SDS011;3554;42.132;24.786;2023-04-15T02:09:57;3.77;;;3.47;;
7025;SDS011;3554;42.132;24.786;2023-04-15T02:12:24;4.30;;;4.10;;
7025;SDS011;3554;42.132;24.786;2023-04-15T02:14:51;4.30;;;3.90;;
7025;SDS011;3554;42.132;24.786;2023-04-15T02:17:19;4.53;;;4.13;;
7025;SDS011;3554;42.132;24.786;2023-04-15T02:19:46;3.77;;;3.57;;
7025;SDS011;3554;42.132;24.786;2023-04-15T02:22:13;3.97;;;3.67;;
7025;SDS011;3554;42.132;24.786;2023-04-15T02:24:42;3.33;;;3.03;;
7025;SDS011;3554;42.132;24.786;2023-04-15T02:27:10;3.27;;;3.07;;
7025;SDS011;3554;42.132;24.786;2023-04-15T02:29:40;3.23;;;3.03;;
7025;SDS011;3554;42.132;24.786;2023-04-15T02:32:08;4.97;;;3.00;;
7025;SDS011;3554;42.132;24.786;2023-04-15T02:34:37;3.93;;;2.90;;
7025;SDS011;3554;42.132;24.786;2023-04-15T02:37:05;3.70;;;3.20;;
7025;SDS011;3554;42.132;24.786;2023-04-15T02:39:32;2.37;;;2.27;;
7025;SDS011;3554;42.132;24.786;2023-04-15T02:41:59;6.03;;;2.70;;
7025;SDS011;3554;42.132;24.786;2023-04-15T02:44:26;3.27;;;2.57;;
7025;SDS011;3554;42.132;24.786;2023-04-15T02:46:53;2.63;;;2.43;;
7025;SDS011;3554;42.132;24.786;2023-04-15T02:49:20;2.33;;;2.03;;
7025;SDS011;3554;42.132;24.786;2023-04-15T02:51:48;2.60;;;2.40;;
7025;SDS011;3554;42.132;24.786;2023-04-15T02:54:15;3.00;;;2.80;;
7025;SDS011;3554;42.132;24.786;2023-04-15T02:56:42;2.63;;;2.43;;
7025;SDS011;3554;42.132;24.786;2023-04-15T02:59:09;3.97;;;2.83;;
7025;SDS011;3554;42.132;24.786;2023-04-15T03:01:36;2.93;;;2.60;;
7025;SDS011;3554;42.132;24.786;2023-04-15T03:04:03;3.50;;;2.20;;
7025;SDS011;3554;42.132;24.786;2023-04-15T03:06:31;2.40;;;2.20;;
7025;SDS011;3554;42.132;24.786;2023-04-15T03:09:00;2.80;;;2.60;;
7025;SDS011;3554;42.132;24.786;2023-04-15T03:11:27;2.50;;;1.97;;
7025;SDS011;3554;42.132;24.786;2023-04-15T03:13:55;2.00;;;1.90;;
7025;SDS011;3554;42.132;24.786;2023-04-15T03:16:22;2.47;;;2.30;;
7025;SDS011;3554;42.132;24.786;2023-04-15T03:18:49;2.47;;;2.33;;
7025;SDS011;3554;42.132;24.786;2023-04-15T03:21:16;2.57;;;2.47;;
7025;SDS011;3554;42.132;24.786;2023-04-15T03:23:44;2.60;;;2.20;;
7025;SDS011;3554;42.132;24.786;2023-04-15T03:26:23;3.83;;;2.27;;
7025;SDS011;3554;42.132;24.786;2023-04-15T03:28:52;2.10;;;2.00;;
7025;SDS011;3554;42.132;24.786;2023-04-15T03:31:19;3.07;;;2.57;;
7025;SDS011;3554;42.132;24.786;2023-04-15T03:33:45;3.03;;;2.20;;
7025;SDS011;3554;42.132;24.786;2023-04-15T03:36:12;4.73;;;2.27;;
7025;SDS011;3554;42.132;24.786;2023-04-15T03:38:39;2.20;;;2.10;;
7025;SDS011;3554;42.132;24.786;2023-04-15T03:41:06;2.57;;;2.43;;
7025;SDS011;3554;42.132;24.786;2023-04-15T03:43:34;2.47;;;2.33;;
7025;SDS011;3554;42.132;24.786;2023-04-15T03:46:01;2.93;;;2.53;;
7025;SDS011;3554;42.132;24.786;2023-04-15T03:48:28;1.87;;;1.77;;
7025;SDS011;3554;42.132;24.786;2023-04-15T03:50:55;2.93;;;2.43;;
7025;SDS011;3554;42.132;24.786;2023-04-15T03:53:22;2.27;;;2.17;;
7025;SDS011;3554;42.132;24.786;2023-04-15T03:55:49;2.43;;;2.27;;
7025;SDS011;3554;42.132;24.786;2023-04-15T03:58:15;2.70;;;2.50;;
7025;SDS011;3554;42.132;24.786;2023-04-15T04:00:44;2.63;;;2.53;;
7025;SDS011;3554;42.132;24.786;2023-04-15T04:03:11;2.40;;;2.20;;
7025;SDS011;3554;42.132;24.786;2023-04-15T04:05:37;3.97;;;2.20;;
7025;SDS011;3554;42.132;24.786;2023-04-15T04:08:05;2.60;;;2.40;;
7025;SDS011;3554;42.132;24.786;2023-04-15T04:10:32;2.63;;;2.43;;
7025;SDS011;3554;42.132;24.786;2023-04-15T04:12:59;2.83;;;2.63;;
7025;SDS011;3554;42.132;24.786;2023-04-15T04:15:26;3.20;;;2.10;;
7025;SDS011;3554;42.132;24.786;2023-04-15T04:17:54;2.93;;;2.50;;
7025;SDS011;3554;42.132;24.786;2023-04-15T04:20:21;2.30;;;2.13;;
7025;SDS011;3554;42.132;24.786;2023-04-15T04:22:48;2.40;;;2.30;;
7025;SDS011;3554;42.132;24.786;2023-04-15T04:25:15;2.00;;;1.90;;
7025;SDS011;3554;42.132;24.786;2023-04-15T04:27:42;2.90;;;2.73;;
7025;SDS011;3554;42.132;24.786;2023-04-15T04:30:09;3.27;;;2.70;;
7025;SDS011;3554;42.132;24.786;2023-04-15T04:32:36;3.00;;;2.80;;
7025;SDS011;3554;42.132;24.786;2023-04-15T04:35:05;3.43;;;2.63;;
7025;SDS011;3554;42.132;24.786;2023-04-15T04:37:32;4.83;;;2.63;;
7025;SDS011;3554;42.132;24.786;2023-04-15T04:39:59;3.13;;;2.60;;
7025;SDS011;3554;42.132;24.786;2023-04-15T04:42:25;9.90;;;3.07;;
7025;SDS011;3554;42.132;24.786;2023-04-15T04:44:52;2.90;;;2.53;;
7025;SDS011;3554;42.132;24.786;2023-04-15T04:47:19;3.03;;;2.83;;
7025;SDS011;3554;42.132;24.786;2023-04-15T04:49:46;2.60;;;2.40;;
7025;SDS011;3554;42.132;24.786;2023-04-15T04:52:14;2.37;;;2.17;;
7025;SDS011;3554;42.132;24.786;2023-04-15T04:54:41;2.70;;;2.50;;
7025;SDS011;3554;42.132;24.786;2023-04-15T04:57:08;2.77;;;2.57;;
7025;SDS011;3554;42.132;24.786;2023-04-15T04:59:34;4.73;;;2.73;;
7025;SDS011;3554;42.132;24.786;2023-04-15T05:02:02;3.93;;;2.83;;
7025;SDS011;3554;42.132;24.786;2023-04-15T05:04:28;4.13;;;2.60;;
7025;SDS011;3554;42.132;24.786;2023-04-15T05:06:56;4.03;;;2.67;;
7025;SDS011;3554;42.132;24.786;2023-04-15T05:09:24;3.00;;;2.30;;
7025;SDS011;3554;42.132;24.786;2023-04-15T05:11:51;4.87;;;2.70;;
7025;SDS011;3554;42.132;24.786;2023-04-15T05:14:18;2.80;;;2.60;;
7025;SDS011;3554;42.132;24.786;2023-04-15T05:16:45;3.50;;;2.33;;
7025;SDS011;3554;42.132;24.786;2023-04-15T05:19:11;3.27;;;3.00;;
7025;SDS011;3554;42.132;24.786;2023-04-15T05:21:38;2.97;;;2.53;;
7025;SDS011;3554;42.132;24.786;2023-04-15T05:24:05;2.97;;;2.77;;
7025;SDS011;3554;42.132;24.786;2023-04-15T05:26:33;3.07;;;2.87;;
7025;SDS011;3554;42.132;24.786;2023-04-15T05:29:00;6.27;;;3.10;;
7025;SDS011;3554;42.132;24.786;2023-04-15T05:31:26;13.17;;;4.23;;
7025;SDS011;3554;42.132;24.786;2023-04-15T05:33:53;7.33;;;3.40;;
7025;SDS011;3554;42.132;24.786;2023-04-15T05:36:20;7.93;;;3.07;;
7025;SDS011;3554;42.132;24.786;2023-04-15T05:38:47;5.47;;;3.53;;
7025;SDS011;3554;42.132;24.786;2023-04-15T05:41:14;8.63;;;3.30;;
7025;SDS011;3554;42.132;24.786;2023-04-15T05:43:42;3.57;;;3.27;;
7025;SDS011;3554;42.132;24.786;2023-04-15T05:46:09;16.53;;;3.60;;
7025;SDS011;3554;42.132;24.786;2023-04-15T05:48:36;2.93;;;2.53;;
7025;SDS011;3554;42.132;24.786;2023-04-15T05:51:03;5.87;;;2.87;;
7025;SDS011;3554;42.132;24.786;2023-04-15T05:53:30;2.70;;;2.37;;
7025;SDS011;3554;42.132;24.786;2023-04-15T05:55:57;2.97;;;2.10;;
7025;SDS011;3554;42.132;24.786;2023-04-15T05:58:24;6.10;;;2.30;;
7025;SDS011;3554;42.132;24.786;2023-04-15T06:00:52;5.13;;;2.50;;
7025;SDS011;3554;42.132;24.786;2023-04-15T06:03:19;2.40;;;2.30;;
7025;SDS011;3554;42.132;24.786;2023-04-15T06:05:47;2.07;;;1.97;;
7025;SDS011;3554;42.132;24.786;2023-04-15T06:08:14;3.33;;;2.07;;
7025;SDS011;3554;42.132;24.786;2023-04-15T06:10:41;2.33;;;2.20;;
7025;SDS011;3554;42.132;24.786;2023-04-15T06:13:08;6.03;;;2.33;;
7025;SDS011;3554;42.132;24.786;2023-04-15T06:15:34;3.70;;;2.40;;
7025;SDS011;3554;42.132;24.786;2023-04-15T06:18:03;4.77;;;2.50;;
7025;SDS011;3554;42.132;24.786;2023-04-15T06:20:29;3.03;;;2.13;;
7025;SDS011;3554;42.132;24.786;2023-04-15T06:22:56;6.93;;;2.83;;
7025;SDS011;3554;42.132;24.786;2023-04-15T06:25:23;8.20;;;2.83;;
7025;SDS011;3554;42.132;24.786;2023-04-15T06:27:50;5.50;;;2.03;;
7025;SDS011;3554;42.132;24.786;2023-04-15T06:30:17;5.70;;;2.10;;
7025;SDS011;3554;42.132;24.786;2023-04-15T06:32:43;2.90;;;2.33;;
7025;SDS011;3554;42.132;24.786;2023-04-15T06:35:12;5.90;;;2.17;;
7025;SDS011;3554;42.132;24.786;2023-04-15T06:37:38;4.47;;;2.57;;
7025;SDS011;3554;42.132;24.786;2023-04-15T06:40:06;2.40;;;2.20;;
7025;SDS011;3554;42.132;24.786;2023-04-15T06:42:34;3.57;;;2.13;;
7025;SDS011;3554;42.132;24.786;2023-04-15T06:45:02;3.63;;;1.70;;
7025;SDS011;3554;42.132;24.786;2023-04-15T06:47:29;3.93;;;2.00;;
7025;SDS011;3554;42.132;24.786;2023-04-15T06:49:56;5.93;;;2.10;;
7025;SDS011;3554;42.132;24.786;2023-04-15T06:52:24;5.90;;;2.13;;
7025;SDS011;3554;42.132;24.786;2023-04-15T06:54:51;4.53;;;1.97;;
7025;SDS011;3554;42.132;24.786;2023-04-15T06:57:18;3.20;;;2.20;;
7025;SDS011;3554;42.132;24.786;2023-04-15T06:59:44;2.57;;;2.37;;
7025;SDS011;3554;42.132;24.786;2023-04-15T07:02:11;2.63;;;2.43;;
7025;SDS011;3554;42.132;24.786;2023-04-15T07:04:38;3.87;;;2.20;;
7025;SDS011;3554;42.132;24.786;2023-04-15T07:07:05;2.20;;;2.00;;
7025;SDS011;3554;42.132;24.786;2023-04-15T07:09:33;2.13;;;2.00;;
7025;SDS011;3554;42.132;24.786;2023-04-15T07:12:00;2.70;;;2.50;;
7025;SDS011;3554;42.132;24.786;2023-04-15T07:14:27;5.37;;;2.50;;
7025;SDS011;3554;42.132;24.786;2023-04-15T07:16:54;2.77;;;2.30;;
7025;SDS011;3554;42.132;24.786;2023-04-15T07:19:21;2.47;;;2.27;;
7025;SDS011;3554;42.132;24.786;2023-04-15T07:21:48;2.60;;;2.40;;
7025;SDS011;3554;42.132;24.786;2023-04-15T07:24:15;2.30;;;2.03;;
7025;SDS011;3554;42.132;24.786;2023-04-15T07:26:45;1.90;;;1.70;;
7025;SDS011;3554;42.132;24.786;2023-04-15T07:29:11;5.47;;;2.00;;
7025;SDS011;3554;42.132;24.786;2023-04-15T07:31:38;5.47;;;2.53;;
7025;SDS011;3554;42.132;24.786;2023-04-15T07:34:06;6.07;;;2.43;;
7025;SDS011;3554;42.132;24.786;2023-04-15T07:36:33;4.47;;;2.10;;
7025;SDS011;3554;42.132;24.786;2023-04-15T07:38:59;5.40;;;2.00;;
7025;SDS011;3554;42.132;24.786;2023-04-15T07:41:28;3.30;;;2.10;;
7025;SDS011;3554;42.132;24.786;2023-04-15T07:43:56;7.27;;;1.90;;
7025;SDS011;3554;42.132;24.786;2023-04-15T07:46:23;7.00;;;2.10;;
7025;SDS011;3554;42.132;24.786;2023-04-15T07:48:51;9.73;;;2.37;;
7025;SDS011;3554;42.132;24.786;2023-04-15T07:51:18;7.23;;;2.27;;
7025;SDS011;3554;42.132;24.786;2023-04-15T07:53:46;2.00;;;1.90;;
7025;SDS011;3554;42.132;24.786;2023-04-15T07:56:13;3.17;;;2.10;;
7025;SDS011;3554;42.132;24.786;2023-04-15T07:58:40;2.60;;;2.40;;
7025;SDS011;3554;42.132;24.786;2023-04-15T08:01:09;2.47;;;2.30;;
7025;SDS011;3554;42.132;24.786;2023-04-15T08:03:35;3.43;;;2.10;;
7025;SDS011;3554;42.132;24.786;2023-04-15T08:06:03;6.67;;;2.40;;
7025;SDS011;3554;42.132;24.786;2023-04-15T08:08:30;2.43;;;2.07;;
7025;SDS011;3554;42.132;24.786;2023-04-15T08:10:57;3.40;;;2.50;;
7025;SDS011;3554;42.132;24.786;2023-04-15T08:13:24;8.23;;;2.73;;
7025;SDS011;3554;42.132;24.786;2023-04-15T08:15:53;4.27;;;2.20;;
7025;SDS011;3554;42.132;24.786;2023-04-15T08:18:42;3.03;;;1.83;;
7025;SDS011;3554;42.132;24.786;2023-04-15T08:21:09;4.30;;;2.43;;
7025;SDS011;3554;42.132;24.786;2023-04-15T08:23:36;2.53;;;2.33;;
7025;SDS011;3554;42.132;24.786;2023-04-15T08:26:03;2.90;;;2.70;;
7025;SDS011;3554;42.132;24.786;2023-04-15T08:28:31;4.03;;;3.07;;
7025;SDS011;3554;42.132;24.786;2023-04-15T08:30:57;3.20;;;2.90;;
7025;SDS011;3554;42.132;24.786;2023-04-15T08:33:25;3.63;;;3.33;;
7025;SDS011;3554;42.132;24.786;2023-04-15T08:35:53;3.27;;;3.03;;
7025;SDS011;3554;42.132;24.786;2023-04-15T08:38:19;4.73;;;3.60;;
7025;SDS011;3554;42.132;24.786;2023-04-15T08:40:46;4.77;;;3.80;;
7025;SDS011;3554;42.132;24.786;2023-04-15T08:43:14;3.83;;;3.17;;
7025;SDS011;3554;42.132;24.786;2023-04-15T08:45:46;4.00;;;3.70;;
7025;SDS011;3554;42.132;24.786;2023-04-15T08:48:16;4.40;;;3.33;;
7025;SDS011;3554;42.132;24.786;2023-04-15T08:50:44;3.77;;;3.47;;
7025;SDS011;3554;42.132;24.786;2023-04-15T08:53:12;4.00;;;3.70;;
7025;SDS011;3554;42.132;24.786;2023-04-15T08:55:42;4.83;;;3.20;;
7025;SDS011;3554;42.132;24.786;2023-04-15T08:58:12;3.83;;;3.30;;
7025;SDS011;3554;42.132;24.786;2023-04-15T09:00:40;5.97;;;3.30;;
7025;SDS011;3554;42.132;24.786;2023-04-15T09:03:08;5.27;;;3.13;;
7025;SDS011;3554;42.132;24.786;2023-04-15T09:05:35;4.23;;;3.83;;
7025;SDS011;3554;42.132;24.786;2023-04-15T09:08:03;3.37;;;3.17;;
7025;SDS011;3554;42.132;24.786;2023-04-15T09:10:31;4.17;;;3.77;;
7025;SDS011;3554;42.132;24.786;2023-04-15T09:12:58;3.70;;;3.43;;
7025;SDS011;3554;42.132;24.786;2023-04-15T09:15:27;3.90;;;3.50;;
7025;SDS011;3554;42.132;24.786;2023-04-15T09:17:54;3.70;;;3.40;;
7025;SDS011;3554;42.132;24.786;2023-04-15T09:20:21;3.80;;;3.23;;
7025;SDS011;3554;42.132;24.786;2023-04-15T09:22:48;5.20;;;3.13;;
7025;SDS011;3554;42.132;24.786;2023-04-15T09:25:29;3.53;;;3.23;;
7025;SDS011;3554;42.132;24.786;2023-04-15T09:27:57;3.70;;;3.40;;
7025;SDS011;3554;42.132;24.786;2023-04-15T09:30:25;3.83;;;3.10;;
7025;SDS011;3554;42.132;24.786;2023-04-15T09:32:54;2.90;;;2.70;;
7025;SDS011;3554;42.132;24.786;2023-04-15T09:35:22;2.50;;;2.30;;
7025;SDS011;3554;42.132;24.786;2023-04-15T09:37:50;2.50;;;1.97;;
7025;SDS011;3554;42.132;24.786;2023-04-15T09:40:31;4.17;;;2.80;;
7025;SDS011;3554;42.132;24.786;2023-04-15T09:42:58;1.97;;;1.87;;
7025;SDS011;3554;42.132;24.786;2023-04-15T09:45:26;3.30;;;1.90;;
7025;SDS011;3554;42.132;24.786;2023-04-15T09:47:53;2.27;;;2.10;;
7025;SDS011;3554;42.132;24.786;2023-04-15T09:50:20;2.03;;;1.90;;
7025;SDS011;3554;42.132;24.786;2023-04-15T09:52:46;2.97;;;2.40;;
7025;SDS011;3554;42.132;24.786;2023-04-15T09:55:13;1.60;;;1.50;;
7025;SDS011;3554;42.132;24.786;2023-04-15T09:57:42;2.37;;;1.70;;
7025;SDS011;3554;42.132;24.786;2023-04-15T10:00:11;2.73;;;1.90;;
7025;SDS011;3554;42.132;24.786;2023-04-15T10:02:39;1.77;;;1.67;;
7025;SDS011;3554;42.132;24.786;2023-04-15T10:05:08;1.83;;;1.60;;
7025;SDS011;3554;42.132;24.786;2023-04-15T10:07:36;2.70;;;1.63;;
7025;SDS011;3554;42.132;24.786;2023-04-15T10:10:05;2.23;;;2.03;;
7025;SDS011;3554;42.132;24.786;2023-04-15T10:12:33;2.10;;;1.90;;
7025;SDS011;3554;42.132;24.786;2023-04-15T10:15:04;2.23;;;1.87;;
7025;SDS011;3554;42.132;24.786;2023-04-15T10:17:32;2.20;;;1.80;;
7025;SDS011;3554;42.132;24.786;2023-04-15T10:20:01;2.77;;;2.30;;
7025;SDS011;3554;42.132;24.786;2023-04-15T10:22:30;3.60;;;3.40;;
7025;SDS011;3554;42.132;24.786;2023-04-15T10:24:57;4.03;;;2.77;;
7025;SDS011;3554;42.132;24.786;2023-04-15T10:27:25;3.03;;;2.83;;
7025;SDS011;3554;42.132;24.786;2023-04-15T10:29:53;3.80;;;3.60;;
7025;SDS011;3554;42.132;24.786;2023-04-15T10:32:21;3.50;;;3.17;;
7025;SDS011;3554;42.132;24.786;2023-04-15T10:34:50;4.77;;;4.37;;
7025;SDS011;3554;42.132;24.786;2023-04-15T10:37:21;5.57;;;5.07;;
7025;SDS011;3554;42.132;24.786;2023-04-15T10:39:48;4.00;;;3.70;;
7025;SDS011;3554;42.132;24.786;2023-04-15T10:42:16;5.20;;;4.53;;
7025;SDS011;3554;42.132;24.786;2023-04-15T10:44:45;4.53;;;4.23;;
7025;SDS011;3554;42.132;24.786;2023-04-15T10:47:16;4.70;;;3.63;;
7025;SDS011;3554;42.132;24.786;2023-04-15T10:49:46;4.03;;;3.77;;
7025;SDS011;3554;42.132;24.786;2023-04-15T10:52:14;4.63;;;4.33;;
7025;SDS011;3554;42.132;24.786;2023-04-15T10:54:42;5.37;;;4.90;;
7025;SDS011;3554;42.132;24.786;2023-04-15T10:57:13;5.53;;;5.13;;
7025;SDS011;3554;42.132;24.786;2023-04-15T11:00:00;5.20;;;4.73;;
7025;SDS011;3554;42.132;24.786;2023-04-15T11:02:38;4.03;;;3.77;;
7025;SDS011;3554;42.132;24.786;2023-04-15T11:05:11;4.07;;;3.77;;
7025;SDS011;3554;42.132;24.786;2023-04-15T11:07:40;4.73;;;4.40;;
7025;SDS011;3554;42.132;24.786;2023-04-15T11:13:23;4.47;;;4.17;;
7025;SDS011;3554;42.132;24.786;2023-04-15T11:15:54;5.70;;;4.00;;
7025;SDS011;3554;42.132;24.786;2023-04-15T11:18:25;4.63;;;4.23;;
7025;SDS011;3554;42.132;24.786;2023-04-15T11:20:56;4.67;;;4.10;;
7025;SDS011;3554;42.132;24.786;2023-04-15T11:23:31;7.10;;;4.13;;
7025;SDS011;3554;42.132;24.786;2023-04-15T11:26:01;4.60;;;4.23;;
7025;SDS011;3554;42.132;24.786;2023-04-15T11:28:30;5.60;;;4.10;;
7025;SDS011;3554;42.132;24.786;2023-04-15T11:30:57;4.10;;;3.83;;
7025;SDS011;3554;42.132;24.786;2023-04-15T11:33:30;4.60;;;4.40;;
7025;SDS011;3554;42.132;24.786;2023-04-15T11:36:00;5.30;;;4.87;;
7025;SDS011;3554;42.132;24.786;2023-04-15T11:38:27;4.47;;;4.10;;
7025;SDS011;3554;42.132;24.786;2023-04-15T11:40:55;4.57;;;4.17;;
7025;SDS011;3554;42.132;24.786;2023-04-15T11:43:22;4.67;;;4.27;;
7025;SDS011;3554;42.132;24.786;2023-04-15T11:45:50;5.43;;;4.20;;
7025;SDS011;3554;42.132;24.786;2023-04-15T11:48:18;4.47;;;4.17;;
7025;SDS011;3554;42.132;24.786;2023-04-15T11:50:51;4.93;;;4.03;;
7025;SDS011;3554;42.132;24.786;2023-04-15T11:53:20;4.07;;;3.70;;
7025;SDS011;3554;42.132;24.786;2023-04-15T11:55:48;3.63;;;3.33;;
7025;SDS011;3554;42.132;24.786;2023-04-15T11:58:16;5.23;;;3.30;;
7025;SDS011;3554;42.132;24.786;2023-04-15T12:00:47;3.30;;;2.93;;
7025;SDS011;3554;42.132;24.786;2023-04-15T12:03:17;2.63;;;2.43;;
7025;SDS011;3554;42.132;24.786;2023-04-15T12:06:04;2.80;;;2.60;;
7025;SDS011;3554;42.132;24.786;2023-04-15T12:11:27;2.50;;;2.30;;
7025;SDS011;3554;42.132;24.786;2023-04-15T12:13:56;2.13;;;1.77;;
7025;SDS011;3554;42.132;24.786;2023-04-15T12:16:24;2.00;;;1.77;;
7025;SDS011;3554;42.132;24.786;2023-04-15T12:18:53;3.87;;;2.27;;
7025;SDS011;3554;42.132;24.786;2023-04-15T12:21:21;2.83;;;1.80;;
7025;SDS011;3554;42.132;24.786;2023-04-15T12:23:49;1.50;;;1.40;;
7025;SDS011;3554;42.132;24.786;2023-04-15T12:26:18;2.73;;;2.23;;
7025;SDS011;3554;42.132;24.786;2023-04-15T12:28:52;3.07;;;2.53;;
7025;SDS011;3554;42.132;24.786;2023-04-15T12:31:19;2.43;;;1.80;;
7025;SDS011;3554;42.132;24.786;2023-04-15T12:33:47;2.23;;;1.90;;
7025;SDS011;3554;42.132;24.786;2023-04-15T12:36:13;1.87;;;1.60;;
7025;SDS011;3554;42.132;24.786;2023-04-15T12:38:40;3.97;;;1.83;;
7025;SDS011;3554;42.132;24.786;2023-04-15T12:41:07;1.53;;;1.43;;
7025;SDS011;3554;42.132;24.786;2023-04-15T12:43:35;1.70;;;1.60;;
7025;SDS011;3554;42.132;24.786;2023-04-15T12:46:02;1.43;;;1.33;;
7025;SDS011;3554;42.132;24.786;2023-04-15T12:48:29;1.83;;;1.73;;
7025;SDS011;3554;42.132;24.786;2023-04-15T12:50:55;4.10;;;1.60;;
7025;SDS011;3554;42.132;24.786;2023-04-15T12:53:22;1.60;;;1.30;;
7025;SDS011;3554;42.132;24.786;2023-04-15T12:55:50;2.33;;;1.90;;
7025;SDS011;3554;42.132;24.786;2023-04-15T12:58:17;2.47;;;1.57;;
7025;SDS011;3554;42.132;24.786;2023-04-15T13:00:45;4.10;;;1.43;;
7025;SDS011;3554;42.132;24.786;2023-04-15T13:03:12;1.70;;;1.60;;
7025;SDS011;3554;42.132;24.786;2023-04-15T13:05:39;1.63;;;1.53;;
7025;SDS011;3554;42.132;24.786;2023-04-15T13:08:06;1.57;;;1.47;;
7025;SDS011;3554;42.132;24.786;2023-04-15T13:10:34;2.33;;;1.67;;
7025;SDS011;3554;42.132;24.786;2023-04-15T13:13:01;1.43;;;1.33;;
7025;SDS011;3554;42.132;24.786;2023-04-15T13:15:30;1.30;;;1.30;;
7025;SDS011;3554;42.132;24.786;2023-04-15T13:17:58;3.17;;;1.77;;
7025;SDS011;3554;42.132;24.786;2023-04-15T13:20:25;1.70;;;1.60;;
7025;SDS011;3554;42.132;24.786;2023-04-15T13:22:52;5.17;;;1.67;;
7025;SDS011;3554;42.132;24.786;2023-04-15T13:25:19;1.73;;;1.60;;
7025;SDS011;3554;42.132;24.786;2023-04-15T13:27:46;1.77;;;1.67;;
7025;SDS011;3554;42.132;24.786;2023-04-15T13:30:13;3.60;;;1.40;;
7025;SDS011;3554;42.132;24.786;2023-04-15T13:32:40;2.80;;;1.30;;
7025;SDS011;3554;42.132;24.786;2023-04-15T13:35:08;1.87;;;1.60;;
7025;SDS011;3554;42.132;24.786;2023-04-15T13:37:35;3.87;;;1.87;;
7025;SDS011;3554;42.132;24.786;2023-04-15T13:40:03;2.83;;;1.93;;
7025;SDS011;3554;42.132;24.786;2023-04-15T13:42:31;1.73;;;1.60;;
7025;SDS011;3554;42.132;24.786;2023-04-15T13:44:58;3.57;;;1.83;;
7025;SDS011;3554;42.132;24.786;2023-04-15T13:47:25;2.23;;;1.33;;
7025;SDS011;3554;42.132;24.786;2023-04-15T13:49:52;2.20;;;1.37;;
7025;SDS011;3554;42.132;24.786;2023-04-15T13:52:22;2.70;;;1.70;;
7025;SDS011;3554;42.132;24.786;2023-04-15T13:54:48;4.00;;;2.00;;
7025;SDS011;3554;42.132;24.786;2023-04-15T13:57:16;2.67;;;1.90;;
7025;SDS011;3554;42.132;24.786;2023-04-15T13:59:42;2.00;;;1.60;;
7025;SDS011;3554;42.132;24.786;2023-04-15T14:02:09;3.07;;;1.80;;
7025;SDS011;3554;42.132;24.786;2023-04-15T14:04:36;6.97;;;2.13;;
7025;SDS011;3554;42.132;24.786;2023-04-15T14:07:03;1.50;;;1.40;;
7025;SDS011;3554;42.132;24.786;2023-04-15T14:09:31;3.97;;;2.00;;
7025;SDS011;3554;42.132;24.786;2023-04-15T14:11:58;4.50;;;1.90;;
7025;SDS011;3554;42.132;24.786;2023-04-15T14:14:25;1.87;;;1.73;;
7025;SDS011;3554;42.132;24.786;2023-04-15T14:16:53;3.10;;;1.83;;
7025;SDS011;3554;42.132;24.786;2023-04-15T14:19:21;2.87;;;2.00;;
7025;SDS011;3554;42.132;24.786;2023-04-15T14:21:48;2.40;;;1.80;;
7025;SDS011;3554;42.132;24.786;2023-04-15T14:24:15;3.40;;;1.47;;
7025;SDS011;3554;42.132;24.786;2023-04-15T14:26:43;4.47;;;1.70;;
7025;SDS011;3554;42.132;24.786;2023-04-15T14:29:10;3.90;;;1.77;;
7025;SDS011;3554;42.132;24.786;2023-04-15T14:31:37;2.40;;;2.23;;
7025;SDS011;3554;42.132;24.786;2023-04-15T14:34:04;2.37;;;2.10;;
7025;SDS011;3554;42.132;24.786;2023-04-15T14:36:30;4.97;;;2.30;;
7025;SDS011;3554;42.132;24.786;2023-04-15T14:38:57;4.10;;;1.80;;
7025;SDS011;3554;42.132;24.786;2023-04-15T14:41:24;2.00;;;1.80;;
7025;SDS011;3554;42.132;24.786;2023-04-15T14:43:52;1.80;;;1.70;;
7025;SDS011;3554;42.132;24.786;2023-04-15T14:46:20;4.70;;;1.90;;
7025;SDS011;3554;42.132;24.786;2023-04-15T14:48:47;3.40;;;2.23;;
7025;SDS011;3554;42.132;24.786;2023-04-15T14:51:14;2.53;;;1.50;;
7025;SDS011;3554;42.132;24.786;2023-04-15T14:53:41;3.47;;;1.80;;
7025;SDS011;3554;42.132;24.786;2023-04-15T14:56:08;3.17;;;1.97;;
7025;SDS011;3554;42.132;24.786;2023-04-15T14:58:35;2.40;;;1.73;;
7025;SDS011;3554;42.132;24.786;2023-04-15T15:01:03;2.50;;;2.20;;
7025;SDS011;3554;42.132;24.786;2023-04-15T15:03:30;6.17;;;2.30;;
7025;SDS011;3554;42.132;24.786;2023-04-15T15:05:57;4.13;;;2.10;;
7025;SDS011;3554;42.132;24.786;2023-04-15T15:08:24;4.40;;;2.83;;
7025;SDS011;3554;42.132;24.786;2023-04-15T15:10:51;6.70;;;2.60;;